createdAt,value
2022-10-17T00:01:41.115Z,89.35
2022-10-17T00:04:10.017Z,89.36
2022-10-17T00:06:38.893Z,89.40
2022-10-17T00:09:07.754Z,89.25
2022-10-17T00:11:37.191Z,89.26
2022-10-17T00:14:06.076Z,89.40
2022-10-17T00:16:38.052Z,89.53
2022-10-17T00:19:08.202Z,89.60
2022-10-17T00:21:37.112Z,89.45
2022-10-17T00:24:17.070Z,89.26
2022-10-17T00:26:50.615Z,89.27
2022-10-17T00:29:23.776Z,89.30
2022-10-17T00:31:58.373Z,89.30
2022-10-17T00:34:31.575Z,89.37
2022-10-17T00:37:00.322Z,89.43
2022-10-17T00:39:29.936Z,89.51
2022-10-17T00:41:58.614Z,89.58
2022-10-17T00:44:30.454Z,89.51
2022-10-17T00:47:06.756Z,89.47
2022-10-17T00:49:39.233Z,89.50
2022-10-17T00:52:31.142Z,89.54
2022-10-17T00:55:29.861Z,89.52
2022-10-17T00:58:04.013Z,89.48
2022-10-17T01:00:33.005Z,89.24
2022-10-17T01:03:01.672Z,89.49
2022-10-17T01:05:31.335Z,89.57
2022-10-17T01:08:01.233Z,89.56
2022-10-17T01:11:04.535Z,89.29
2022-10-17T01:14:17.620Z,89.23
2022-10-17T01:16:59.894Z,89.31
2022-10-17T01:19:50.153Z,89.17
2022-10-17T01:22:30.817Z,89.02
2022-10-17T01:25:39.634Z,89.12
2022-10-17T01:29:07.893Z,89.42
2022-10-17T01:32:07.652Z,89.53
2022-10-17T01:34:49.153Z,89.70
2022-10-17T01:37:40.383Z,89.75
2022-10-17T01:41:01.823Z,89.85
2022-10-17T01:43:42.192Z,89.79
2022-10-17T01:46:31.573Z,89.68
2022-10-17T01:49:03.753Z,89.76
2022-10-17T01:51:54.981Z,90.13
2022-10-17T01:54:45.212Z,90.36
2022-10-17T01:57:40.294Z,90.37
2022-10-17T02:00:24.661Z,90.26
2022-10-17T02:03:05.742Z,90.21
2022-10-17T02:05:44.234Z,90.15
2022-10-17T02:08:15.034Z,89.98
2022-10-17T02:11:04.992Z,89.93
2022-10-17T02:17:16.300Z,89.79
2022-10-17T02:20:46.733Z,89.68
2022-10-17T02:23:44.224Z,89.42
2022-10-17T02:26:30.556Z,89.18
2022-10-17T02:29:22.644Z,89.05
2022-10-17T02:32:00.712Z,89.10
2022-10-17T02:34:43.261Z,89.01
2022-10-17T02:38:14.114Z,89.22
2022-10-17T02:41:14.201Z,89.19
2022-10-17T02:43:55.651Z,89.28
2022-10-17T02:46:27.864Z,89.23
2022-10-17T02:49:15.056Z,89.25
2022-10-17T02:52:08.098Z,89.36
2022-10-17T02:54:58.332Z,89.32
2022-10-17T02:57:33.874Z,89.26
2022-10-17T03:00:05.835Z,89.06
2022-10-17T03:02:50.792Z,89.00
2022-10-17T03:05:23.313Z,89.11
2022-10-17T03:07:53.035Z,89.31
2022-10-17T03:10:23.243Z,89.49
2022-10-17T03:12:52.074Z,89.53
2022-10-17T03:15:20.752Z,89.50
2022-10-17T03:17:49.495Z,89.60
2022-10-17T03:20:18.212Z,89.54
2022-10-17T03:23:33.435Z,89.38
2022-10-17T03:26:17.952Z,89.39
2022-10-17T03:28:54.485Z,89.52
2022-10-17T03:31:57.913Z,89.60
2022-10-17T03:35:01.114Z,89.43
2022-10-17T03:37:38.277Z,89.40
2022-10-17T03:40:13.442Z,89.61
2022-10-17T03:42:42.370Z,89.78
2022-10-17T03:45:11.481Z,89.69
2022-10-17T03:47:47.894Z,89.82
2022-10-17T03:50:18.095Z,89.99
2022-10-17T03:52:58.073Z,90.07
2022-10-17T03:55:42.423Z,90.05
2022-10-17T03:58:23.945Z,89.95
2022-10-17T04:01:13.184Z,89.80
2022-10-17T04:03:56.406Z,89.73
2022-10-17T04:06:54.006Z,89.81
2022-10-17T04:09:42.295Z,89.73
2022-10-17T04:12:18.515Z,89.77
2022-10-17T04:14:47.434Z,89.94
2022-10-17T04:17:16.254Z,90.11
2022-10-17T04:19:53.741Z,90.11
2022-10-17T04:22:47.581Z,90.11
2022-10-17T04:25:29.656Z,90.14
2022-10-17T04:27:59.935Z,90.26
2022-10-17T04:30:41.157Z,90.24
2022-10-17T04:33:28.341Z,90.18
2022-10-17T04:36:14.894Z,90.20
2022-10-17T04:38:44.274Z,90.20
2022-10-17T04:41:19.401Z,90.27
2022-10-17T04:43:59.014Z,90.38
2022-10-17T04:46:27.925Z,90.36
2022-10-17T04:49:12.842Z,90.31
2022-10-17T04:52:13.721Z,90.30
2022-10-17T04:55:08.437Z,90.18
2022-10-17T04:58:06.061Z,90.04
2022-10-17T05:00:51.903Z,90.00
2022-10-17T05:03:22.838Z,90.01
2022-10-17T05:05:53.155Z,90.03
2022-10-17T05:08:21.834Z,90.12
2022-10-17T05:10:50.667Z,90.17
2022-10-17T05:13:19.254Z,90.17
2022-10-17T05:15:47.829Z,90.18
2022-10-17T05:18:16.454Z,90.23
2022-10-17T05:20:45.095Z,90.22
2022-10-17T05:23:13.909Z,90.13
2022-10-17T05:25:42.593Z,90.06
2022-10-17T05:28:11.134Z,90.00
2022-10-17T05:30:39.854Z,90.00
2022-10-17T05:33:08.639Z,89.98
2022-10-17T05:35:37.236Z,89.93
2022-10-17T05:38:05.814Z,89.88
2022-10-17T05:40:35.235Z,89.88
2022-10-17T05:43:03.981Z,89.81
2022-10-17T05:45:32.777Z,89.79
2022-10-17T05:48:01.454Z,89.79
2022-10-17T05:50:30.176Z,89.68
2022-10-17T05:52:59.094Z,89.57
2022-10-17T05:55:28.215Z,89.50
2022-10-17T05:57:56.944Z,89.46
2022-10-17T06:00:25.557Z,89.42
2022-10-17T06:02:54.363Z,89.40
2022-10-17T06:05:22.973Z,89.34
2022-10-17T06:07:54.326Z,89.29
2022-10-17T06:10:24.734Z,89.17
2022-10-17T06:12:53.334Z,89.06
2022-10-17T06:15:21.896Z,88.95
2022-10-17T06:17:50.594Z,88.90
2022-10-17T06:20:19.541Z,88.76
2022-10-17T06:22:48.474Z,88.63
2022-10-17T06:25:17.185Z,88.51
2022-10-17T06:27:45.739Z,88.44
2022-10-17T06:30:14.596Z,88.42
2022-10-17T06:32:43.055Z,88.39
2022-10-17T06:35:11.722Z,88.30
2022-10-17T06:37:40.738Z,88.14
2022-10-17T06:40:12.493Z,88.02
2022-10-17T06:42:41.937Z,87.92
2022-10-17T06:45:11.421Z,87.86
2022-10-17T06:47:40.243Z,87.81
2022-10-17T06:50:09.376Z,87.73
2022-10-17T06:52:37.903Z,87.59
2022-10-17T06:55:07.425Z,87.46
2022-10-17T06:57:36.534Z,87.34
2022-10-17T07:00:06.735Z,87.18
2022-10-17T07:02:35.374Z,87.11
2022-10-17T07:05:04.101Z,87.06
2022-10-17T07:07:33.034Z,86.97
2022-10-17T07:10:01.816Z,86.85
2022-10-17T07:18:23.614Z,86.86
2022-10-17T07:20:56.265Z,86.48
2022-10-17T07:23:24.875Z,86.31
2022-10-17T07:25:53.775Z,86.11
2022-10-17T07:28:22.317Z,86.11
2022-10-17T07:30:53.717Z,86.02
2022-10-17T07:33:23.305Z,85.90
2022-10-17T07:35:53.272Z,85.62
2022-10-17T07:38:21.924Z,85.56
2022-10-17T07:41:02.027Z,85.31
2022-10-17T07:43:31.624Z,85.19
2022-10-17T07:46:02.686Z,85.03
2022-10-17T07:48:32.145Z,84.78
2022-10-17T07:51:07.135Z,84.64
2022-10-17T07:53:39.222Z,84.63
2022-10-17T07:56:09.881Z,84.32
2022-10-17T07:58:39.637Z,84.21
2022-10-17T08:01:15.812Z,84.03
2022-10-17T08:03:48.899Z,83.97
2022-10-17T08:06:18.217Z,83.77
2022-10-17T08:08:46.707Z,83.77
2022-10-17T08:11:16.621Z,83.45
2022-10-17T08:13:45.213Z,83.27
2022-10-17T08:16:14.358Z,83.12
2022-10-17T08:18:44.539Z,82.89
2022-10-17T08:21:13.883Z,82.87
2022-10-17T08:23:42.719Z,82.34
2022-10-17T08:26:20.312Z,82.13
2022-10-17T08:28:49.999Z,81.67
2022-10-17T08:31:21.265Z,81.70
2022-10-17T08:33:51.286Z,81.81
2022-10-17T08:36:21.605Z,81.53
2022-10-17T08:38:52.760Z,81.42
2022-10-17T08:41:34.042Z,81.05
2022-10-17T08:44:40.818Z,80.85
2022-10-17T08:47:23.533Z,80.72
2022-10-17T08:49:57.866Z,80.45
2022-10-17T08:52:47.641Z,80.21
2022-10-17T08:55:30.237Z,80.01
2022-10-17T08:57:59.044Z,79.68
2022-10-17T09:00:31.526Z,79.61
2022-10-17T09:03:15.487Z,79.47
2022-10-17T09:06:30.337Z,79.31
2022-10-17T09:09:36.080Z,79.00
2022-10-17T09:12:58.623Z,78.60
2022-10-17T09:16:18.404Z,78.26
2022-10-17T09:19:27.239Z,78.05
2022-10-17T09:22:04.732Z,77.71
2022-10-17T09:24:44.712Z,77.43
2022-10-17T09:27:41.727Z,76.98
2022-10-17T09:30:46.372Z,76.90
2022-10-17T09:33:35.632Z,76.46
2022-10-17T09:36:14.555Z,75.51
2022-10-17T09:38:58.327Z,75.27
2022-10-17T09:41:46.895Z,74.75
2022-10-17T09:44:48.409Z,74.84
2022-10-17T09:47:35.539Z,73.52
2022-10-17T09:50:16.517Z,73.96
2022-10-17T09:52:48.047Z,73.69
2022-10-17T09:55:40.700Z,73.41
2022-10-17T09:58:11.815Z,73.57
2022-10-17T10:00:45.338Z,72.51
2022-10-17T10:03:18.636Z,72.13
2022-10-17T10:06:04.557Z,71.45
2022-10-17T10:08:56.526Z,71.09
2022-10-17T10:11:54.535Z,71.23
2022-10-17T10:14:34.911Z,70.84
2022-10-17T10:17:24.705Z,70.15
2022-10-17T10:19:54.074Z,69.01
2022-10-17T10:22:24.228Z,68.27
2022-10-17T10:25:11.216Z,68.11
2022-10-17T10:27:42.499Z,67.40
2022-10-17T10:30:22.957Z,67.29
2022-10-17T10:32:52.328Z,67.43
2022-10-17T10:35:34.435Z,66.72
2022-10-17T10:38:11.298Z,66.20
2022-10-17T10:40:57.306Z,64.95
2022-10-17T10:43:41.448Z,65.18
2022-10-17T10:46:37.371Z,64.57
2022-10-17T10:49:33.190Z,63.85
2022-10-17T10:52:06.283Z,63.56
2022-10-17T10:54:42.965Z,62.53
2022-10-17T10:57:21.178Z,62.89
2022-10-17T11:00:02.847Z,62.83
2022-10-17T11:03:12.652Z,62.11
2022-10-17T11:05:56.654Z,62.11
2022-10-17T11:08:53.098Z,60.55
2022-10-17T11:11:34.984Z,61.22
2022-10-17T11:14:38.698Z,61.27
2022-10-17T11:17:19.070Z,61.25
2022-10-17T11:20:18.668Z,60.30
2022-10-17T11:23:00.659Z,60.65
2022-10-17T11:25:39.115Z,60.43
2022-10-17T11:28:18.359Z,60.33
2022-10-17T11:31:00.604Z,59.54
2022-10-17T11:34:08.639Z,59.70
2022-10-17T11:36:43.126Z,59.01
2022-10-17T11:39:28.417Z,59.13
2022-10-17T11:42:07.659Z,59.05
2022-10-17T11:44:41.769Z,58.14
2022-10-17T11:47:48.178Z,57.41
2022-10-17T11:53:20.509Z,57.15
2022-10-17T11:55:52.698Z,56.82
2022-10-17T11:58:37.602Z,57.58
2022-10-17T12:01:35.237Z,57.51
2022-10-17T12:04:41.983Z,57.44
2022-10-17T12:07:29.157Z,57.19
2022-10-17T12:10:16.358Z,56.44
2022-10-17T12:12:44.844Z,56.46
2022-10-17T12:15:13.421Z,56.53
2022-10-17T12:17:46.438Z,56.71
2022-10-17T12:20:21.678Z,56.65
2022-10-17T12:23:03.641Z,56.13
2022-10-17T12:25:47.808Z,56.24
2022-10-17T12:28:39.888Z,56.56
2022-10-17T12:31:16.431Z,56.15
2022-10-17T12:34:19.585Z,55.91
2022-10-17T12:36:48.166Z,55.66
2022-10-17T12:39:18.085Z,55.89
2022-10-17T12:41:47.009Z,55.69
2022-10-17T12:44:15.667Z,55.53
2022-10-17T12:47:10.978Z,55.07
2022-10-17T12:49:54.385Z,55.22
2022-10-17T12:52:33.441Z,54.74
2022-10-17T12:55:14.522Z,54.67
2022-10-17T12:58:08.555Z,55.00
2022-10-17T13:01:11.634Z,54.80
2022-10-17T13:03:48.064Z,55.05
2022-10-17T13:06:26.166Z,55.32
2022-10-17T13:09:04.234Z,55.02
2022-10-17T13:11:38.316Z,54.87
2022-10-17T13:14:17.299Z,54.54
2022-10-17T13:17:07.908Z,54.87
2022-10-17T13:19:46.219Z,55.05
2022-10-17T13:22:32.598Z,55.14
2022-10-17T13:25:15.929Z,54.95
2022-10-17T13:27:45.747Z,55.27
2022-10-17T13:30:32.653Z,55.33
2022-10-17T13:33:03.729Z,55.31
2022-10-17T13:35:59.533Z,55.39
2022-10-17T13:38:34.190Z,55.24
2022-10-17T13:41:34.373Z,54.87
2022-10-17T13:44:08.422Z,55.06
2022-10-17T13:46:40.164Z,55.09
2022-10-17T13:49:37.476Z,55.48
2022-10-17T13:52:24.347Z,54.90
2022-10-17T13:54:54.668Z,54.96
2022-10-17T13:57:32.179Z,55.15
2022-10-17T14:00:16.006Z,55.19
2022-10-17T14:02:44.680Z,55.27
2022-10-17T14:05:20.399Z,55.53
2022-10-17T14:08:14.487Z,55.79
2022-10-17T14:10:45.617Z,55.71
2022-10-17T14:13:28.280Z,55.83
2022-10-17T14:16:03.036Z,55.79
2022-10-17T14:18:36.861Z,55.83
2022-10-17T14:21:36.831Z,56.04
2022-10-17T14:24:16.579Z,55.88
2022-10-17T14:27:00.936Z,55.49
2022-10-17T14:29:32.227Z,55.62
2022-10-17T14:32:15.417Z,55.42
2022-10-17T14:34:45.447Z,55.38
2022-10-17T14:37:51.081Z,55.90
2022-10-17T14:40:26.415Z,56.12
2022-10-17T14:42:58.374Z,56.08
2022-10-17T14:45:37.443Z,55.74
2022-10-17T14:48:24.726Z,56.24
2022-10-17T14:51:18.676Z,55.94
2022-10-17T14:54:27.180Z,55.98
2022-10-17T14:56:56.388Z,56.22
2022-10-17T14:59:52.148Z,56.40
2022-10-17T15:02:15.419Z,56.76
2022-10-17T15:04:44.099Z,56.87
2022-10-17T15:07:17.887Z,57.18
2022-10-17T15:09:51.204Z,57.45
2022-10-17T15:12:25.405Z,57.42
2022-10-17T15:14:55.016Z,57.58
2022-10-17T15:17:31.938Z,57.65
2022-10-17T15:20:00.937Z,57.72
2022-10-17T15:22:31.704Z,57.93
2022-10-17T15:25:00.510Z,58.07
2022-10-17T15:27:31.982Z,58.20
2022-10-17T15:30:00.860Z,58.55
2022-10-17T15:32:29.439Z,58.81
2022-10-17T15:34:57.919Z,59.08
2022-10-17T15:37:34.112Z,59.40
2022-10-17T15:40:02.787Z,59.71
2022-10-17T15:42:32.095Z,60.03
2022-10-17T15:45:00.792Z,60.25
2022-10-17T15:47:36.197Z,60.55
2022-10-17T15:50:09.185Z,60.85
2022-10-17T15:52:38.180Z,61.19
2022-10-17T15:55:08.182Z,61.58
2022-10-17T15:57:43.339Z,61.88
2022-10-17T16:00:24.437Z,62.21
2022-10-17T16:02:52.999Z,62.55
2022-10-17T16:05:26.876Z,62.95
2022-10-17T16:07:57.957Z,63.36
2022-10-17T16:10:27.370Z,63.82
2022-10-17T16:12:56.760Z,64.11
2022-10-17T16:15:28.340Z,64.54
2022-10-17T16:18:01.641Z,64.97
2022-10-17T16:20:33.057Z,65.33
2022-10-17T16:23:03.481Z,65.73
2022-10-17T16:25:33.088Z,66.02
2022-10-17T16:28:02.734Z,66.30
2022-10-17T16:30:33.149Z,66.59
2022-10-17T16:33:01.708Z,66.81
2022-10-17T16:35:34.792Z,67.23
2022-10-17T16:38:08.951Z,67.46
2022-10-17T16:40:40.619Z,67.67
2022-10-17T16:43:15.302Z,67.71
2022-10-17T16:45:43.881Z,67.78
2022-10-17T16:48:12.778Z,67.93
2022-10-17T16:50:41.562Z,68.04
2022-10-17T16:53:10.460Z,68.22
2022-10-17T16:55:39.147Z,68.43
2022-10-17T16:58:07.816Z,68.68
2022-10-17T17:00:39.331Z,68.91
2022-10-17T17:03:07.963Z,69.17
2022-10-17T17:05:36.538Z,69.58
2022-10-17T17:08:09.092Z,69.97
2022-10-17T17:10:50.624Z,70.17
2022-10-17T17:13:20.035Z,70.29
2022-10-17T17:15:50.640Z,70.29
2022-10-17T17:18:22.897Z,70.45
2022-10-17T17:20:51.798Z,70.69
2022-10-17T17:23:20.997Z,70.83
2022-10-17T17:25:51.220Z,71.15
2022-10-17T17:28:20.018Z,71.28
2022-10-17T17:30:49.271Z,71.60
2022-10-17T17:33:19.397Z,71.86
2022-10-17T17:35:48.840Z,72.06
2022-10-17T17:38:18.302Z,72.24
2022-10-17T17:40:50.770Z,72.46
2022-10-17T17:43:21.526Z,72.61
2022-10-17T17:45:50.642Z,72.76
2022-10-17T17:48:21.734Z,72.82
2022-10-17T17:50:52.639Z,72.89
2022-10-17T17:53:22.440Z,72.92
2022-10-17T17:56:07.570Z,73.16
2022-10-17T17:58:37.454Z,73.54
2022-10-17T18:01:14.387Z,73.69
2022-10-17T18:03:44.118Z,73.92
2022-10-17T18:06:13.019Z,74.14
2022-10-17T18:08:46.577Z,74.36
2022-10-17T18:11:17.175Z,74.62
2022-10-17T18:13:48.586Z,74.78
2022-10-17T18:16:17.479Z,74.87
2022-10-17T18:18:46.281Z,74.96
2022-10-17T18:21:15.479Z,75.23
2022-10-17T18:23:47.187Z,75.42
2022-10-17T18:26:17.239Z,75.67
2022-10-17T18:28:46.137Z,75.96
2022-10-17T18:31:36.301Z,76.11
2022-10-17T18:34:06.480Z,76.00
2022-10-17T18:36:37.559Z,76.13
2022-10-17T18:39:06.478Z,76.48
2022-10-17T18:41:35.740Z,76.76
2022-10-17T18:44:05.080Z,77.21
2022-10-17T18:46:41.224Z,77.42
2022-10-17T18:49:14.219Z,77.58
2022-10-17T18:51:43.441Z,77.69
2022-10-17T18:54:17.419Z,77.67
2022-10-17T18:56:47.270Z,77.60
2022-10-17T18:59:16.457Z,77.70
2022-10-17T19:01:45.465Z,77.67
2022-10-17T19:04:15.359Z,77.64
2022-10-17T19:06:45.077Z,77.68
2022-10-17T19:09:15.928Z,77.70
2022-10-17T19:11:44.898Z,77.64
2022-10-17T19:14:14.351Z,77.56
2022-10-17T19:16:49.372Z,77.39
2022-10-17T19:19:24.560Z,77.43
2022-10-17T19:21:54.188Z,77.38
2022-10-17T19:24:28.719Z,77.31
2022-10-17T19:27:02.927Z,77.30
2022-10-17T19:29:32.397Z,77.79
2022-10-17T19:32:02.088Z,78.10
2022-10-17T19:34:30.739Z,77.99
2022-10-17T19:36:59.726Z,77.65
2022-10-17T19:39:28.719Z,76.89
2022-10-17T19:41:57.402Z,76.45
2022-10-17T19:44:26.301Z,76.18
2022-10-17T19:46:54.917Z,75.70
2022-10-17T19:49:23.979Z,75.38
2022-10-17T19:51:52.925Z,75.28
2022-10-17T19:54:21.668Z,75.12
2022-10-17T19:56:50.481Z,75.01
2022-10-17T19:59:20.199Z,75.07
2022-10-17T20:01:48.770Z,75.31
2022-10-17T20:04:17.640Z,75.22
2022-10-17T20:06:46.406Z,74.86
2022-10-17T20:09:17.074Z,74.60
2022-10-17T20:11:46.563Z,74.16
2022-10-17T20:14:15.228Z,73.82
2022-10-17T20:16:45.238Z,73.45
2022-10-17T20:19:14.472Z,73.17
2022-10-17T20:21:44.416Z,73.02
2022-10-17T20:24:16.288Z,72.86
2022-10-17T20:26:46.281Z,72.66
2022-10-17T20:29:21.481Z,72.50
2022-10-17T20:31:51.198Z,72.53
2022-10-17T20:34:20.507Z,72.54
2022-10-17T20:36:50.100Z,72.64
2022-10-17T20:39:21.277Z,72.70
2022-10-17T20:41:49.939Z,72.76
2022-10-17T20:44:18.518Z,72.90
2022-10-17T20:47:00.581Z,72.93
2022-10-17T20:49:33.000Z,73.02
2022-10-17T20:52:02.252Z,73.08
2022-10-17T20:54:31.017Z,73.19
2022-10-17T20:57:02.516Z,73.25
2022-10-17T20:59:36.327Z,73.21
2022-10-17T21:02:06.558Z,73.31
2022-10-17T21:04:50.468Z,73.40
2022-10-17T21:07:19.297Z,73.48
2022-10-17T21:09:47.979Z,73.50
2022-10-17T21:12:25.929Z,73.48
2022-10-17T21:15:06.190Z,73.30
2022-10-17T21:17:35.041Z,73.15
2022-10-17T21:20:04.235Z,72.85
2022-10-17T21:22:35.278Z,72.39
2022-10-17T21:25:04.159Z,71.95
2022-10-17T21:27:32.647Z,71.71
2022-10-17T21:30:01.428Z,71.75
2022-10-17T21:32:40.364Z,71.88
2022-10-17T21:35:18.567Z,72.00
2022-10-17T21:37:46.948Z,71.97
2022-10-17T21:40:15.627Z,72.00
2022-10-17T21:42:44.120Z,71.94
2022-10-17T21:45:15.742Z,71.90
2022-10-17T21:48:11.602Z,71.97
2022-10-17T21:50:37.217Z,72.14
2022-10-17T21:53:05.898Z,72.35
2022-10-17T21:55:37.883Z,72.51
2022-10-17T21:58:06.442Z,72.65
2022-10-17T22:01:07.803Z,72.70
2022-10-17T22:03:46.678Z,72.62
2022-10-17T22:06:44.009Z,72.73
2022-10-17T22:09:43.418Z,72.79
2022-10-17T22:12:47.379Z,72.72
2022-10-17T22:15:47.046Z,72.67
2022-10-17T22:18:22.334Z,72.56
2022-10-17T22:21:12.108Z,72.62
2022-10-17T22:24:00.312Z,72.64
2022-10-17T22:26:39.824Z,72.70
2022-10-17T22:29:15.650Z,72.66
2022-10-17T22:31:47.310Z,72.66
2022-10-17T22:34:19.642Z,72.72
2022-10-17T22:36:52.117Z,72.88
2022-10-17T22:39:23.026Z,73.02
2022-10-17T22:41:55.446Z,73.18
2022-10-17T22:44:26.013Z,73.36
2022-10-17T22:46:58.911Z,73.60
2022-10-17T23:14:26.171Z,72.78
2022-10-17T23:24:28.571Z,72.58
2022-10-17T23:27:07.320Z,72.76
2022-10-17T23:29:43.329Z,73.04
2022-10-17T23:42:38.018Z,74.15
